W2QLF HTDA-FQNP
Flight info
| Callsign | W2QLF |
|---|---|
| Flight time | N/A |
| Altitude | 11000 |
| Route | HTDA DA610 DUDNA ERDEN EGTAN APNV EGVOG FQNP |
| Aircraft | HU16/M-V/N |
Departure
| Time | N/A |
|---|---|
| Airport | Julius Nyerere International Airport (HTDA) |
Arrival
| Time | 2026-04-24 12:22 |
|---|---|
| Airport | Nampula Airport (FQNP) |
| Time | Latitude | Longitude | Altitude | Speed | Heading |
|---|---|---|---|---|---|
| 2026-04-24 10:20 | -9.60016 | 39.16168 | 6070 ft | 200 kts | 180° |
| 2026-04-24 10:21 | -9.62871 | 39.16193 | 6066 ft | 200 kts | 180° |
| 2026-04-24 10:21 | -9.63809 | 39.16201 | 6066 ft | 200 kts | 180° |
| 2026-04-24 10:22 | -9.66605 | 39.16229 | 6068 ft | 200 kts | 180° |
| 2026-04-24 10:22 | -9.67974 | 39.16238 | 6068 ft | 200 kts | 180° |
| 2026-04-24 10:22 | -9.69363 | 39.16248 | 6067 ft | 200 kts | 180° |
| 2026-04-24 10:22 | -9.70752 | 39.16262 | 6068 ft | 200 kts | 180° |
| 2026-04-24 10:23 | -9.72141 | 39.16272 | 6068 ft | 199 kts | 180° |
| 2026-04-24 10:23 | -9.73529 | 39.16281 | 6069 ft | 199 kts | 180° |
| 2026-04-24 10:23 | -9.74917 | 39.16295 | 6070 ft | 200 kts | 180° |
| 2026-04-24 10:23 | -9.76306 | 39.16307 | 6071 ft | 200 kts | 180° |
| 2026-04-24 10:24 | -9.77699 | 39.16319 | 6075 ft | 200 kts | 180° |
| 2026-04-24 10:24 | -9.79072 | 39.16331 | 6071 ft | 200 kts | 180° |
| 2026-04-24 10:24 | -9.80461 | 39.16341 | 6071 ft | 199 kts | 180° |
| 2026-04-24 10:24 | -9.81847 | 39.16354 | 6071 ft | 200 kts | 180° |
| 2026-04-24 10:25 | -9.83236 | 39.16365 | 6073 ft | 199 kts | 180° |
| 2026-04-24 10:25 | -9.84622 | 39.16377 | 6072 ft | 199 kts | 180° |
| 2026-04-24 10:25 | -9.86007 | 39.16390 | 6070 ft | 199 kts | 180° |
| 2026-04-24 10:25 | -9.87393 | 39.16400 | 6071 ft | 199 kts | 180° |
| 2026-04-24 10:26 | -9.88782 | 39.16411 | 6070 ft | 200 kts | 180° |
| 2026-04-24 10:26 | -9.90171 | 39.16424 | 6071 ft | 199 kts | 180° |
| 2026-04-24 10:26 | -9.91561 | 39.16434 | 6073 ft | 200 kts | 180° |
| 2026-04-24 10:26 | -9.92933 | 39.16448 | 6073 ft | 200 kts | 180° |
| 2026-04-24 10:27 | -9.94320 | 39.16459 | 6071 ft | 199 kts | 180° |
| 2026-04-24 10:27 | -9.95705 | 39.16470 | 6074 ft | 199 kts | 180° |
| 2026-04-24 10:27 | -9.97092 | 39.16481 | 6077 ft | 200 kts | 180° |
| 2026-04-24 10:27 | -9.98482 | 39.16495 | 6072 ft | 200 kts | 180° |
| 2026-04-24 10:28 | -9.99870 | 39.16505 | 6070 ft | 199 kts | 180° |
| 2026-04-24 10:28 | -10.01257 | 39.16515 | 6073 ft | 200 kts | 180° |
| 2026-04-24 10:28 | -10.02648 | 39.16530 | 6075 ft | 201 kts | 180° |
| 2026-04-24 10:28 | -10.04046 | 39.16542 | 6074 ft | 201 kts | 180° |
| 2026-04-24 10:29 | -10.05422 | 39.16554 | 6074 ft | 200 kts | 180° |
| 2026-04-24 10:29 | -10.06812 | 39.16565 | 6071 ft | 200 kts | 180° |
| 2026-04-24 10:29 | -10.08199 | 39.16578 | 6070 ft | 199 kts | 180° |
| 2026-04-24 10:29 | -10.09588 | 39.16586 | 6070 ft | 200 kts | 180° |
| 2026-04-24 10:30 | -10.10976 | 39.16600 | 6070 ft | 200 kts | 180° |
| 2026-04-24 10:30 | -10.12365 | 39.16616 | 6069 ft | 200 kts | 180° |
| 2026-04-24 10:30 | -10.13754 | 39.16626 | 6072 ft | 200 kts | 180° |
| 2026-04-24 10:30 | -10.15142 | 39.16639 | 6073 ft | 199 kts | 180° |
| 2026-04-24 10:31 | -10.16511 | 39.16649 | 6078 ft | 200 kts | 180° |
| 2026-04-24 10:31 | -10.17903 | 39.16659 | 6076 ft | 200 kts | 180° |
| 2026-04-24 10:31 | -10.19293 | 39.16672 | 6077 ft | 200 kts | 180° |
| 2026-04-24 10:31 | -10.20682 | 39.16687 | 6076 ft | 200 kts | 180° |
| 2026-04-24 10:32 | -10.22073 | 39.16699 | 6075 ft | 200 kts | 180° |
| 2026-04-24 10:32 | -10.23465 | 39.16707 | 6079 ft | 200 kts | 180° |
| 2026-04-24 10:32 | -10.24862 | 39.16717 | 6071 ft | 201 kts | 180° |
| 2026-04-24 10:32 | -10.26257 | 39.16733 | 6073 ft | 200 kts | 180° |
| 2026-04-24 10:33 | -10.27647 | 39.16743 | 6072 ft | 200 kts | 180° |
| 2026-04-24 10:33 | -10.29017 | 39.16755 | 6075 ft | 200 kts | 180° |
| 2026-04-24 10:33 | -10.30407 | 39.16765 | 6074 ft | 200 kts | 180° |
| 2026-04-24 10:33 | -10.31801 | 39.16778 | 6074 ft | 200 kts | 180° |
| 2026-04-24 10:34 | -10.33195 | 39.16790 | 6072 ft | 201 kts | 180° |
| 2026-04-24 10:34 | -10.34590 | 39.16803 | 6072 ft | 200 kts | 180° |
| 2026-04-24 10:34 | -10.35982 | 39.16814 | 6069 ft | 200 kts | 180° |
| 2026-04-24 10:34 | -10.37374 | 39.16825 | 6071 ft | 200 kts | 180° |
| 2026-04-24 10:35 | -10.38764 | 39.16837 | 6070 ft | 200 kts | 180° |
| 2026-04-24 10:35 | -10.40154 | 39.16849 | 6071 ft | 200 kts | 180° |
| 2026-04-24 10:35 | -10.41523 | 39.16860 | 6071 ft | 200 kts | 180° |
| 2026-04-24 10:35 | -10.42914 | 39.16872 | 6071 ft | 200 kts | 180° |
| 2026-04-24 10:36 | -10.44303 | 39.16883 | 6072 ft | 200 kts | 180° |
| 2026-04-24 10:36 | -10.45694 | 39.16895 | 6072 ft | 200 kts | 180° |
| 2026-04-24 10:36 | -10.47088 | 39.16906 | 6073 ft | 200 kts | 180° |
| 2026-04-24 10:36 | -10.48484 | 39.16919 | 6074 ft | 201 kts | 180° |
| 2026-04-24 10:37 | -10.49882 | 39.16933 | 6075 ft | 201 kts | 180° |
| 2026-04-24 10:37 | -10.51278 | 39.16941 | 6070 ft | 201 kts | 180° |
| 2026-04-24 10:37 | -10.52672 | 39.16955 | 6073 ft | 200 kts | 180° |
| 2026-04-24 10:37 | -10.54064 | 39.16964 | 6075 ft | 201 kts | 180° |
| 2026-04-24 10:38 | -10.55444 | 39.16979 | 6074 ft | 201 kts | 180° |
| 2026-04-24 10:38 | -10.56843 | 39.16993 | 6070 ft | 202 kts | 180° |
| 2026-04-24 10:38 | -10.58240 | 39.17004 | 6070 ft | 200 kts | 180° |
| 2026-04-24 10:38 | -10.59629 | 39.17015 | 6075 ft | 200 kts | 180° |
| 2026-04-24 10:39 | -10.61026 | 39.17027 | 6074 ft | 201 kts | 180° |
| 2026-04-24 10:39 | -10.62422 | 39.17037 | 6073 ft | 200 kts | 180° |
| 2026-04-24 10:39 | -10.63816 | 39.17049 | 6072 ft | 200 kts | 180° |
| 2026-04-24 10:39 | -10.65210 | 39.17061 | 6072 ft | 200 kts | 180° |
| 2026-04-24 10:40 | -10.66587 | 39.17073 | 6074 ft | 201 kts | 180° |
| 2026-04-24 10:40 | -10.67986 | 39.17086 | 6070 ft | 200 kts | 180° |
| 2026-04-24 10:40 | -10.69377 | 39.17096 | 6070 ft | 200 kts | 180° |
| 2026-04-24 10:40 | -10.70763 | 39.17110 | 6075 ft | 199 kts | 180° |
| 2026-04-24 10:41 | -10.72154 | 39.17123 | 6070 ft | 199 kts | 180° |
| 2026-04-24 10:41 | -10.73542 | 39.17131 | 6073 ft | 200 kts | 180° |
| 2026-04-24 10:41 | -10.74938 | 39.17144 | 6074 ft | 201 kts | 180° |
| 2026-04-24 10:41 | -10.76337 | 39.17156 | 6075 ft | 201 kts | 180° |
| 2026-04-24 10:42 | -10.77737 | 39.17168 | 6072 ft | 201 kts | 180° |
| 2026-04-24 10:42 | -10.79136 | 39.17179 | 6076 ft | 201 kts | 180° |
| 2026-04-24 10:42 | -10.80519 | 39.17194 | 6071 ft | 201 kts | 180° |
| 2026-04-24 10:42 | -10.81916 | 39.17203 | 6075 ft | 201 kts | 180° |
| 2026-04-24 10:43 | -10.83312 | 39.17220 | 6071 ft | 201 kts | 180° |
| 2026-04-24 10:43 | -10.84709 | 39.17231 | 6070 ft | 200 kts | 180° |
| 2026-04-24 10:43 | -10.86102 | 39.17238 | 6073 ft | 201 kts | 180° |
| 2026-04-24 10:43 | -10.87497 | 39.17248 | 6071 ft | 200 kts | 180° |
| 2026-04-24 10:44 | -10.88885 | 39.17262 | 6074 ft | 200 kts | 180° |
| 2026-04-24 10:44 | -10.90279 | 39.17274 | 6073 ft | 200 kts | 180° |
| 2026-04-24 10:44 | -10.91654 | 39.17285 | 6074 ft | 200 kts | 180° |
| 2026-04-24 10:44 | -10.93049 | 39.17297 | 6072 ft | 200 kts | 180° |
| 2026-04-24 10:45 | -10.94442 | 39.17310 | 6073 ft | 200 kts | 180° |
| 2026-04-24 10:45 | -10.95835 | 39.17322 | 6075 ft | 200 kts | 180° |
| 2026-04-24 10:45 | -10.97229 | 39.17333 | 6075 ft | 200 kts | 180° |
| 2026-04-24 10:45 | -10.98624 | 39.17344 | 6073 ft | 200 kts | 180° |
| 2026-04-24 10:46 | -11.00019 | 39.17357 | 6073 ft | 200 kts | 180° |
| 2026-04-24 10:46 | -11.01412 | 39.17371 | 6071 ft | 200 kts | 180° |
| 2026-04-24 10:46 | -11.02804 | 39.17381 | 6072 ft | 200 kts | 180° |
| 2026-04-24 10:46 | -11.04178 | 39.17393 | 6072 ft | 200 kts | 180° |
| 2026-04-24 10:47 | -11.05569 | 39.17406 | 6072 ft | 200 kts | 180° |
| 2026-04-24 10:47 | -11.06958 | 39.17417 | 6072 ft | 200 kts | 180° |
| 2026-04-24 10:47 | -11.08347 | 39.17429 | 6071 ft | 200 kts | 180° |
| 2026-04-24 10:47 | -11.09736 | 39.17440 | 6072 ft | 200 kts | 180° |
| 2026-04-24 10:48 | -11.11124 | 39.17450 | 6071 ft | 199 kts | 180° |
| 2026-04-24 10:48 | -11.12513 | 39.17464 | 6073 ft | 200 kts | 180° |
| 2026-04-24 10:48 | -11.13903 | 39.17474 | 6070 ft | 200 kts | 180° |
| 2026-04-24 10:48 | -11.15292 | 39.17488 | 6071 ft | 199 kts | 180° |
| 2026-04-24 10:49 | -11.16659 | 39.17502 | 6072 ft | 200 kts | 180° |
| 2026-04-24 10:49 | -11.18049 | 39.17512 | 6070 ft | 200 kts | 180° |
| 2026-04-24 10:49 | -11.19437 | 39.17525 | 6070 ft | 199 kts | 180° |
| 2026-04-24 10:49 | -11.20826 | 39.17537 | 6070 ft | 200 kts | 180° |
| 2026-04-24 10:50 | -11.22214 | 39.17548 | 6071 ft | 199 kts | 180° |
| 2026-04-24 10:50 | -11.23602 | 39.17559 | 6071 ft | 199 kts | 180° |
| 2026-04-24 10:50 | -11.24988 | 39.17572 | 6071 ft | 199 kts | 180° |
| 2026-04-24 10:50 | -11.26374 | 39.17584 | 6071 ft | 199 kts | 180° |
| 2026-04-24 10:51 | -11.27743 | 39.17593 | 6071 ft | 200 kts | 180° |
| 2026-04-24 10:51 | -11.29131 | 39.17607 | 6068 ft | 200 kts | 180° |
| 2026-04-24 10:51 | -11.30519 | 39.17618 | 6072 ft | 199 kts | 180° |
| 2026-04-24 10:51 | -11.31907 | 39.17631 | 6072 ft | 199 kts | 180° |
| 2026-04-24 10:52 | -11.33294 | 39.17643 | 6072 ft | 199 kts | 180° |
| 2026-04-24 10:52 | -11.34681 | 39.17654 | 6072 ft | 199 kts | 180° |
| 2026-04-24 10:52 | -11.36067 | 39.17667 | 6072 ft | 199 kts | 180° |
| 2026-04-24 10:52 | -11.37454 | 39.17678 | 6071 ft | 199 kts | 180° |
| 2026-04-24 10:53 | -11.38839 | 39.17689 | 6074 ft | 199 kts | 180° |
| 2026-04-24 10:53 | -11.40209 | 39.17702 | 6075 ft | 200 kts | 180° |
| 2026-04-24 10:53 | -11.41609 | 39.17713 | 6076 ft | 202 kts | 180° |
| 2026-04-24 10:53 | -11.43013 | 39.17724 | 6074 ft | 202 kts | 180° |
| 2026-04-24 10:54 | -11.44420 | 39.17739 | 6078 ft | 202 kts | 180° |
| 2026-04-24 10:54 | -11.45827 | 39.17748 | 6073 ft | 202 kts | 180° |
| 2026-04-24 10:54 | -11.47232 | 39.17759 | 6079 ft | 202 kts | 180° |
| 2026-04-24 10:54 | -11.48634 | 39.17772 | 6075 ft | 201 kts | 180° |
| 2026-04-24 10:55 | -11.50029 | 39.17788 | 6072 ft | 200 kts | 180° |
| 2026-04-24 10:55 | -11.51403 | 39.17797 | 6076 ft | 200 kts | 180° |
| 2026-04-24 10:55 | -11.52797 | 39.17809 | 6074 ft | 200 kts | 180° |
| 2026-04-24 10:55 | -11.54187 | 39.17823 | 6072 ft | 199 kts | 180° |
| 2026-04-24 10:56 | -11.55571 | 39.17834 | 6075 ft | 199 kts | 180° |
| 2026-04-24 10:56 | -11.56962 | 39.17842 | 6072 ft | 200 kts | 180° |
| 2026-04-24 10:56 | -11.58353 | 39.17855 | 6071 ft | 200 kts | 180° |
| 2026-04-24 10:56 | -11.59742 | 39.17869 | 6071 ft | 199 kts | 180° |
| 2026-04-24 10:57 | -11.61127 | 39.17882 | 6074 ft | 199 kts | 180° |
| 2026-04-24 10:57 | -11.62514 | 39.17893 | 6070 ft | 200 kts | 180° |
| 2026-04-24 10:57 | -11.63885 | 39.17903 | 6071 ft | 200 kts | 180° |
| 2026-04-24 10:57 | -11.65274 | 39.17917 | 6074 ft | 199 kts | 180° |
| 2026-04-24 10:58 | -11.66662 | 39.17930 | 6072 ft | 200 kts | 180° |
| 2026-04-24 10:58 | -11.68053 | 39.17940 | 6071 ft | 200 kts | 180° |
| 2026-04-24 10:58 | -11.69443 | 39.17952 | 6071 ft | 200 kts | 180° |
| 2026-04-24 10:58 | -11.70830 | 39.17965 | 6071 ft | 199 kts | 180° |
| 2026-04-24 10:59 | -11.72215 | 39.17976 | 6071 ft | 199 kts | 180° |
| 2026-04-24 10:59 | -11.73600 | 39.17992 | 6070 ft | 199 kts | 180° |
| 2026-04-24 10:59 | -11.74969 | 39.18001 | 6071 ft | 199 kts | 180° |
| 2026-04-24 10:59 | -11.76355 | 39.18011 | 6070 ft | 199 kts | 180° |
| 2026-04-24 11:00 | -11.77742 | 39.18022 | 6070 ft | 199 kts | 180° |
| 2026-04-24 11:00 | -11.79128 | 39.18034 | 6070 ft | 200 kts | 180° |
| 2026-04-24 11:00 | -11.80515 | 39.18047 | 6070 ft | 199 kts | 180° |
| 2026-04-24 11:00 | -11.81903 | 39.18060 | 6071 ft | 200 kts | 180° |
| 2026-04-24 11:01 | -11.83295 | 39.18071 | 6070 ft | 200 kts | 180° |
| 2026-04-24 11:01 | -11.84688 | 39.18083 | 6074 ft | 200 kts | 180° |
| 2026-04-24 11:01 | -11.86083 | 39.18094 | 6075 ft | 201 kts | 180° |
| 2026-04-24 11:01 | -11.87479 | 39.18107 | 6073 ft | 200 kts | 180° |
| 2026-04-24 11:02 | -11.88850 | 39.18118 | 6072 ft | 200 kts | 180° |
| 2026-04-24 11:02 | -11.90240 | 39.18132 | 6074 ft | 200 kts | 180° |
| 2026-04-24 11:02 | -11.91627 | 39.18144 | 6072 ft | 199 kts | 180° |
| 2026-04-24 11:02 | -11.93017 | 39.18154 | 6073 ft | 200 kts | 180° |
| 2026-04-24 11:03 | -11.94409 | 39.18167 | 6073 ft | 200 kts | 180° |
| 2026-04-24 11:03 | -11.95801 | 39.18179 | 6071 ft | 200 kts | 180° |
| 2026-04-24 11:03 | -11.97190 | 39.18189 | 6075 ft | 200 kts | 180° |
| 2026-04-24 11:03 | -11.98578 | 39.18202 | 6070 ft | 199 kts | 180° |
| 2026-04-24 11:04 | -11.99950 | 39.18215 | 6074 ft | 200 kts | 180° |
| 2026-04-24 11:04 | -12.01342 | 39.18223 | 6074 ft | 200 kts | 180° |
| 2026-04-24 11:04 | -12.02735 | 39.18240 | 6074 ft | 200 kts | 180° |
| 2026-04-24 11:04 | -12.04129 | 39.18251 | 6074 ft | 200 kts | 180° |
| 2026-04-24 11:05 | -12.05521 | 39.18264 | 6074 ft | 200 kts | 180° |
| 2026-04-24 11:05 | -12.06912 | 39.18273 | 6073 ft | 200 kts | 180° |
| 2026-04-24 11:05 | -12.08303 | 39.18286 | 6073 ft | 200 kts | 180° |
| 2026-04-24 11:05 | -12.09692 | 39.18297 | 6071 ft | 200 kts | 180° |
| 2026-04-24 11:06 | -12.11082 | 39.18312 | 6071 ft | 200 kts | 180° |
| 2026-04-24 11:06 | -12.12472 | 39.18324 | 6074 ft | 200 kts | 180° |
| 2026-04-24 11:06 | -12.13844 | 39.18335 | 6074 ft | 200 kts | 180° |
| 2026-04-24 11:06 | -12.15236 | 39.18345 | 6071 ft | 200 kts | 180° |
| 2026-04-24 11:07 | -12.18017 | 39.18369 | 6074 ft | 200 kts | 180° |
| 2026-04-24 11:07 | -12.19409 | 39.18380 | 6075 ft | 200 kts | 180° |
| 2026-04-24 11:07 | -12.20800 | 39.18394 | 6073 ft | 200 kts | 180° |
| 2026-04-24 11:08 | -12.22192 | 39.18407 | 6074 ft | 200 kts | 180° |
| 2026-04-24 11:08 | -12.23586 | 39.18417 | 6071 ft | 200 kts | 180° |
| 2026-04-24 11:08 | -12.24977 | 39.18428 | 6074 ft | 200 kts | 180° |
| 2026-04-24 11:08 | -12.26348 | 39.18441 | 6075 ft | 200 kts | 180° |
| 2026-04-24 11:09 | -12.27740 | 39.18453 | 6074 ft | 200 kts | 180° |
| 2026-04-24 11:09 | -12.29130 | 39.18465 | 6074 ft | 200 kts | 180° |
| 2026-04-24 11:09 | -12.30518 | 39.18477 | 6068 ft | 199 kts | 180° |
| 2026-04-24 11:09 | -12.31905 | 39.18490 | 6074 ft | 200 kts | 180° |
| 2026-04-24 11:10 | -12.33295 | 39.18501 | 6071 ft | 200 kts | 180° |
| 2026-04-24 11:10 | -12.34680 | 39.18513 | 6071 ft | 199 kts | 180° |
| 2026-04-24 11:10 | -12.36065 | 39.18525 | 6074 ft | 199 kts | 180° |
| 2026-04-24 11:10 | -12.37452 | 39.18534 | 6072 ft | 200 kts | 180° |
| 2026-04-24 11:11 | -12.38820 | 39.18548 | 6073 ft | 199 kts | 180° |
| 2026-04-24 11:11 | -12.40210 | 39.18563 | 6072 ft | 200 kts | 180° |
| 2026-04-24 11:11 | -12.41601 | 39.18571 | 6073 ft | 200 kts | 180° |
| 2026-04-24 11:11 | -12.42992 | 39.18585 | 6072 ft | 200 kts | 180° |
| 2026-04-24 11:12 | -12.44379 | 39.18598 | 6076 ft | 200 kts | 180° |
| 2026-04-24 11:12 | -12.45769 | 39.18609 | 6072 ft | 199 kts | 180° |
| 2026-04-24 11:12 | -12.47158 | 39.18619 | 6073 ft | 200 kts | 180° |
| 2026-04-24 11:12 | -12.48547 | 39.18632 | 6072 ft | 200 kts | 180° |
| 2026-04-24 11:13 | -12.49918 | 39.18645 | 6076 ft | 200 kts | 180° |
| 2026-04-24 11:13 | -12.51307 | 39.18656 | 6073 ft | 200 kts | 180° |
| 2026-04-24 11:13 | -12.52695 | 39.18669 | 6072 ft | 199 kts | 180° |
| 2026-04-24 11:13 | -12.54082 | 39.18680 | 6072 ft | 199 kts | 180° |
| 2026-04-24 11:14 | -12.55467 | 39.18692 | 6072 ft | 200 kts | 180° |
| 2026-04-24 11:14 | -12.56856 | 39.18706 | 6072 ft | 199 kts | 180° |
| 2026-04-24 11:14 | -12.58245 | 39.18718 | 6070 ft | 200 kts | 180° |
| 2026-04-24 11:14 | -12.59633 | 39.18729 | 6074 ft | 200 kts | 180° |
| 2026-04-24 11:15 | -12.61027 | 39.18742 | 6072 ft | 201 kts | 180° |
| 2026-04-24 11:15 | -12.62422 | 39.18753 | 6077 ft | 201 kts | 180° |
| 2026-04-24 11:15 | -12.63819 | 39.18764 | 6076 ft | 201 kts | 180° |
| 2026-04-24 11:15 | -12.65197 | 39.18775 | 6074 ft | 201 kts | 180° |
| 2026-04-24 11:16 | -12.66589 | 39.18787 | 6071 ft | 200 kts | 180° |
| 2026-04-24 11:16 | -12.67980 | 39.18800 | 6073 ft | 200 kts | 180° |
| 2026-04-24 11:16 | -12.69368 | 39.18812 | 6071 ft | 199 kts | 180° |
| 2026-04-24 11:16 | -12.70758 | 39.18825 | 6070 ft | 200 kts | 180° |
| 2026-04-24 11:17 | -12.72147 | 39.18835 | 6072 ft | 200 kts | 180° |
| 2026-04-24 11:17 | -12.73535 | 39.18848 | 6073 ft | 200 kts | 180° |
| 2026-04-24 11:17 | -12.74924 | 39.18861 | 6072 ft | 199 kts | 180° |
| 2026-04-24 11:17 | -12.76293 | 39.18871 | 6073 ft | 200 kts | 180° |
| 2026-04-24 11:18 | -12.77682 | 39.18884 | 6072 ft | 200 kts | 180° |
| 2026-04-24 11:18 | -12.79070 | 39.18896 | 6073 ft | 199 kts | 180° |
| 2026-04-24 11:18 | -12.80459 | 39.18908 | 6075 ft | 200 kts | 180° |
| 2026-04-24 11:18 | -12.81850 | 39.18921 | 6069 ft | 200 kts | 180° |
| 2026-04-24 11:19 | -12.83238 | 39.18932 | 6071 ft | 199 kts | 180° |
| 2026-04-24 11:19 | -12.84626 | 39.18946 | 6072 ft | 200 kts | 180° |
| 2026-04-24 11:19 | -12.86014 | 39.18956 | 6072 ft | 199 kts | 180° |
| 2026-04-24 11:19 | -12.87403 | 39.18967 | 6070 ft | 199 kts | 180° |
| 2026-04-24 11:20 | -12.88769 | 39.18980 | 6073 ft | 199 kts | 180° |
| 2026-04-24 11:20 | -12.90155 | 39.18991 | 6072 ft | 199 kts | 180° |
| 2026-04-24 11:20 | -12.91540 | 39.19004 | 6074 ft | 199 kts | 180° |
| 2026-04-24 11:20 | -12.92926 | 39.19016 | 6071 ft | 199 kts | 180° |
| 2026-04-24 11:21 | -12.94312 | 39.19028 | 6071 ft | 199 kts | 180° |
| 2026-04-24 11:21 | -12.95699 | 39.19040 | 6072 ft | 199 kts | 180° |
| 2026-04-24 11:21 | -12.97087 | 39.19051 | 6077 ft | 200 kts | 180° |
| 2026-04-24 11:21 | -12.98478 | 39.19064 | 6073 ft | 199 kts | 180° |
| 2026-04-24 11:22 | -12.99862 | 39.19075 | 6073 ft | 199 kts | 180° |
| 2026-04-24 11:22 | -13.01230 | 39.19088 | 6069 ft | 199 kts | 180° |
| 2026-04-24 11:22 | -13.02619 | 39.19101 | 6070 ft | 200 kts | 180° |
| 2026-04-24 11:22 | -13.04009 | 39.19113 | 6067 ft | 200 kts | 180° |
| 2026-04-24 11:23 | -13.05402 | 39.19126 | 6065 ft | 200 kts | 180° |
| 2026-04-24 11:23 | -13.06789 | 39.19136 | 6068 ft | 200 kts | 180° |
| 2026-04-24 11:23 | -13.08177 | 39.19146 | 6069 ft | 199 kts | 180° |
| 2026-04-24 11:23 | -13.09566 | 39.19160 | 6066 ft | 200 kts | 180° |
| 2026-04-24 11:24 | -13.10953 | 39.19173 | 6064 ft | 199 kts | 180° |
| 2026-04-24 11:24 | -13.12340 | 39.19183 | 6064 ft | 199 kts | 180° |
| 2026-04-24 11:24 | -13.13710 | 39.19194 | 6065 ft | 199 kts | 180° |
| 2026-04-24 11:24 | -13.15099 | 39.19210 | 6063 ft | 200 kts | 180° |
| 2026-04-24 11:25 | -13.16488 | 39.19220 | 6065 ft | 199 kts | 180° |
| 2026-04-24 11:25 | -13.17879 | 39.19230 | 6065 ft | 200 kts | 180° |
| 2026-04-24 11:25 | -13.19273 | 39.19242 | 6066 ft | 200 kts | 180° |
| 2026-04-24 11:25 | -13.20665 | 39.19257 | 6071 ft | 200 kts | 180° |
| 2026-04-24 11:26 | -13.22058 | 39.19271 | 6068 ft | 200 kts | 180° |
| 2026-04-24 11:26 | -13.23453 | 39.19282 | 6066 ft | 200 kts | 180° |
| 2026-04-24 11:26 | -13.24845 | 39.19293 | 6066 ft | 200 kts | 180° |
| 2026-04-24 11:26 | -13.26220 | 39.19305 | 6066 ft | 200 kts | 180° |
| 2026-04-24 11:27 | -13.27610 | 39.19317 | 6068 ft | 200 kts | 180° |
| 2026-04-24 11:27 | -13.28999 | 39.19331 | 6067 ft | 200 kts | 180° |
| 2026-04-24 11:27 | -13.30386 | 39.19341 | 6065 ft | 199 kts | 180° |
| 2026-04-24 11:27 | -13.31773 | 39.19352 | 6067 ft | 199 kts | 180° |
| 2026-04-24 11:28 | -13.33159 | 39.19366 | 6070 ft | 199 kts | 180° |
| 2026-04-24 11:28 | -13.34546 | 39.19377 | 6069 ft | 200 kts | 180° |
| 2026-04-24 11:28 | -13.35937 | 39.19389 | 6070 ft | 200 kts | 180° |
| 2026-04-24 11:28 | -13.37312 | 39.19400 | 6069 ft | 200 kts | 180° |
| 2026-04-24 11:29 | -13.38701 | 39.19414 | 6068 ft | 200 kts | 180° |
| 2026-04-24 11:29 | -13.40093 | 39.19425 | 6071 ft | 200 kts | 180° |
| 2026-04-24 11:29 | -13.41486 | 39.19437 | 6071 ft | 200 kts | 180° |
| 2026-04-24 11:29 | -13.42878 | 39.19450 | 6070 ft | 200 kts | 180° |
| 2026-04-24 11:30 | -13.44269 | 39.19463 | 6071 ft | 200 kts | 180° |
| 2026-04-24 11:30 | -13.45662 | 39.19474 | 6073 ft | 200 kts | 180° |
| 2026-04-24 11:30 | -13.47055 | 39.19486 | 6068 ft | 200 kts | 180° |
| 2026-04-24 11:30 | -13.48442 | 39.19499 | 6064 ft | 199 kts | 180° |
| 2026-04-24 11:31 | -13.49829 | 39.19510 | 6068 ft | 199 kts | 180° |
| 2026-04-24 11:31 | -13.51200 | 39.19520 | 6067 ft | 200 kts | 180° |
| 2026-04-24 11:31 | -13.52589 | 39.19533 | 6067 ft | 199 kts | 180° |
| 2026-04-24 11:31 | -13.53976 | 39.19546 | 6067 ft | 199 kts | 180° |
| 2026-04-24 11:32 | -13.55362 | 39.19560 | 6066 ft | 199 kts | 180° |
| 2026-04-24 11:32 | -13.56749 | 39.19572 | 6069 ft | 199 kts | 180° |
| 2026-04-24 11:32 | -13.58135 | 39.19583 | 6076 ft | 199 kts | 180° |
| 2026-04-24 11:32 | -13.59515 | 39.19593 | 6088 ft | 198 kts | 180° |
| 2026-04-24 11:33 | -13.60897 | 39.19605 | 6093 ft | 199 kts | 180° |
| 2026-04-24 11:33 | -13.62264 | 39.19617 | 6090 ft | 199 kts | 180° |
| 2026-04-24 11:33 | -13.63649 | 39.19631 | 6093 ft | 199 kts | 180° |
| 2026-04-24 11:33 | -13.65038 | 39.19642 | 6095 ft | 200 kts | 180° |
| 2026-04-24 11:34 | -13.66429 | 39.19654 | 6093 ft | 200 kts | 180° |
| 2026-04-24 11:34 | -13.67818 | 39.19666 | 6092 ft | 199 kts | 180° |
| 2026-04-24 11:34 | -13.69204 | 39.19677 | 6087 ft | 199 kts | 180° |
| 2026-04-24 11:34 | -13.70590 | 39.19690 | 6089 ft | 199 kts | 180° |
| 2026-04-24 11:35 | -13.71975 | 39.19704 | 6091 ft | 199 kts | 180° |
| 2026-04-24 11:35 | -13.73343 | 39.19716 | 6090 ft | 199 kts | 180° |
| 2026-04-24 11:35 | -13.74729 | 39.19726 | 6085 ft | 199 kts | 180° |
| 2026-04-24 11:35 | -13.76117 | 39.19736 | 6089 ft | 199 kts | 180° |
| 2026-04-24 11:36 | -13.77503 | 39.19750 | 6085 ft | 199 kts | 180° |
| 2026-04-24 11:36 | -13.78889 | 39.19761 | 6092 ft | 200 kts | 180° |
| 2026-04-24 11:36 | -13.80281 | 39.19776 | 6094 ft | 200 kts | 180° |
| 2026-04-24 11:36 | -13.81668 | 39.19788 | 6095 ft | 200 kts | 180° |
| 2026-04-24 11:37 | -13.83057 | 39.19798 | 6096 ft | 200 kts | 180° |
| 2026-04-24 11:37 | -13.84448 | 39.19812 | 6094 ft | 199 kts | 180° |
| 2026-04-24 11:37 | -13.85814 | 39.19823 | 6094 ft | 199 kts | 180° |
| 2026-04-24 11:37 | -13.87204 | 39.19835 | 6094 ft | 200 kts | 180° |
| 2026-04-24 11:38 | -13.88591 | 39.19849 | 6094 ft | 199 kts | 180° |
| 2026-04-24 11:38 | -13.89977 | 39.19860 | 6094 ft | 199 kts | 180° |
| 2026-04-24 11:38 | -13.91363 | 39.19871 | 6094 ft | 199 kts | 180° |
| 2026-04-24 11:38 | -13.92751 | 39.19884 | 6093 ft | 199 kts | 180° |
| 2026-04-24 11:39 | -13.94138 | 39.19895 | 6091 ft | 199 kts | 180° |
| 2026-04-24 11:39 | -13.95525 | 39.19908 | 6091 ft | 200 kts | 180° |
| 2026-04-24 11:39 | -13.96915 | 39.19921 | 6085 ft | 200 kts | 180° |
| 2026-04-24 11:39 | -13.98286 | 39.19930 | 6087 ft | 200 kts | 180° |
| 2026-04-24 11:40 | -13.99675 | 39.19946 | 6085 ft | 199 kts | 180° |
| 2026-04-24 11:40 | -14.01061 | 39.19959 | 6082 ft | 199 kts | 180° |
| 2026-04-24 11:40 | -14.02445 | 39.19969 | 6089 ft | 199 kts | 180° |
| 2026-04-24 11:40 | -14.03830 | 39.19980 | 6090 ft | 199 kts | 180° |
| 2026-04-24 11:41 | -14.05213 | 39.19994 | 6089 ft | 199 kts | 180° |
| 2026-04-24 11:41 | -14.06597 | 39.20004 | 6088 ft | 199 kts | 180° |
| 2026-04-24 11:41 | -14.07982 | 39.20017 | 6089 ft | 199 kts | 180° |
| 2026-04-24 11:41 | -14.09366 | 39.20029 | 6093 ft | 199 kts | 180° |
| 2026-04-24 11:42 | -14.10736 | 39.20041 | 6093 ft | 200 kts | 180° |
| 2026-04-24 11:42 | -14.12127 | 39.20053 | 6093 ft | 200 kts | 180° |
| 2026-04-24 11:42 | -14.13519 | 39.20064 | 6088 ft | 200 kts | 180° |
| 2026-04-24 11:42 | -14.14908 | 39.20079 | 6091 ft | 200 kts | 180° |
| 2026-04-24 11:43 | -14.16298 | 39.20090 | 6092 ft | 200 kts | 180° |
| 2026-04-24 11:43 | -14.17688 | 39.20101 | 6089 ft | 200 kts | 180° |
| 2026-04-24 11:43 | -14.19077 | 39.20115 | 6092 ft | 199 kts | 180° |
| 2026-04-24 11:43 | -14.20461 | 39.20128 | 6095 ft | 199 kts | 180° |
| 2026-04-24 11:44 | -14.21849 | 39.20139 | 6097 ft | 199 kts | 180° |
| 2026-04-24 11:44 | -14.23217 | 39.20150 | 6092 ft | 199 kts | 180° |
| 2026-04-24 11:44 | -14.24602 | 39.20162 | 6086 ft | 200 kts | 180° |
| 2026-04-24 11:44 | -14.25991 | 39.20176 | 6087 ft | 200 kts | 180° |
| 2026-04-24 11:45 | -14.27381 | 39.20188 | 6088 ft | 200 kts | 180° |
| 2026-04-24 11:45 | -14.28768 | 39.20197 | 6089 ft | 199 kts | 180° |
| 2026-04-24 11:45 | -14.30154 | 39.20208 | 6082 ft | 199 kts | 180° |
| 2026-04-24 11:45 | -14.31539 | 39.20220 | 6092 ft | 199 kts | 180° |
| 2026-04-24 11:46 | -14.32926 | 39.20233 | 6089 ft | 200 kts | 180° |
| 2026-04-24 11:46 | -14.34297 | 39.20247 | 6087 ft | 200 kts | 180° |
| 2026-04-24 11:46 | -14.35687 | 39.20257 | 6088 ft | 200 kts | 180° |
| 2026-04-24 11:46 | -14.37078 | 39.20270 | 6090 ft | 200 kts | 180° |
| 2026-04-24 11:47 | -14.38467 | 39.20283 | 6086 ft | 200 kts | 180° |
| 2026-04-24 11:47 | -14.39858 | 39.20295 | 6095 ft | 200 kts | 180° |
| 2026-04-24 11:47 | -14.41251 | 39.20307 | 6095 ft | 200 kts | 180° |
| 2026-04-24 11:47 | -14.42644 | 39.20319 | 6088 ft | 200 kts | 180° |
| 2026-04-24 11:48 | -14.44038 | 39.20332 | 6092 ft | 201 kts | 180° |
| 2026-04-24 11:48 | -14.45433 | 39.20343 | 6092 ft | 200 kts | 180° |
| 2026-04-24 11:48 | -14.46829 | 39.20357 | 6086 ft | 201 kts | 180° |
| 2026-04-24 11:48 | -14.48206 | 39.20368 | 6095 ft | 200 kts | 180° |
| 2026-04-24 11:49 | -14.49598 | 39.20378 | 6097 ft | 201 kts | 180° |
| 2026-04-24 11:49 | -14.50996 | 39.20394 | 6092 ft | 200 kts | 180° |
| 2026-04-24 11:49 | -14.52388 | 39.20401 | 6093 ft | 200 kts | 180° |
| 2026-04-24 11:49 | -14.53781 | 39.20417 | 6089 ft | 200 kts | 180° |
| 2026-04-24 11:50 | -14.55176 | 39.20433 | 6096 ft | 200 kts | 180° |
| 2026-04-24 11:50 | -14.56567 | 39.20442 | 6099 ft | 200 kts | 180° |
| 2026-04-24 11:50 | -14.57960 | 39.20453 | 6100 ft | 200 kts | 180° |
| 2026-04-24 11:50 | -14.59356 | 39.20467 | 6097 ft | 200 kts | 180° |
| 2026-04-24 11:51 | -14.60729 | 39.20480 | 6091 ft | 200 kts | 180° |
| 2026-04-24 11:51 | -14.62111 | 39.20491 | 5969 ft | 198 kts | 180° |
| 2026-04-24 11:51 | -14.63497 | 39.20501 | 5733 ft | 199 kts | 180° |
| 2026-04-24 11:51 | -14.64877 | 39.20512 | 5498 ft | 198 kts | 180° |
| 2026-04-24 11:52 | -14.66255 | 39.20525 | 5236 ft | 198 kts | 180° |
| 2026-04-24 11:52 | -14.67627 | 39.20535 | 4977 ft | 197 kts | 180° |
| 2026-04-24 11:52 | -14.68976 | 39.20551 | 4955 ft | 194 kts | 180° |
| 2026-04-24 11:52 | -14.70337 | 39.20566 | 4951 ft | 197 kts | 180° |
| 2026-04-24 11:53 | -14.71691 | 39.20578 | 4956 ft | 197 kts | 180° |
| 2026-04-24 11:53 | -14.73068 | 39.20589 | 4960 ft | 199 kts | 180° |
| 2026-04-24 11:53 | -14.74456 | 39.20602 | 4952 ft | 198 kts | 180° |
| 2026-04-24 11:53 | -14.75815 | 39.20611 | 4945 ft | 194 kts | 180° |
| 2026-04-24 11:54 | -14.77153 | 39.20621 | 4947 ft | 191 kts | 180° |
| 2026-04-24 11:54 | -14.78473 | 39.20632 | 4936 ft | 187 kts | 180° |
| 2026-04-24 11:54 | -14.79753 | 39.20646 | 4941 ft | 182 kts | 180° |
| 2026-04-24 11:54 | -14.81003 | 39.20655 | 4936 ft | 177 kts | 180° |
| 2026-04-24 11:55 | -14.82231 | 39.20666 | 4935 ft | 177 kts | 180° |
| 2026-04-24 11:55 | -14.83438 | 39.20680 | 4939 ft | 176 kts | 180° |
| 2026-04-24 11:55 | -14.84656 | 39.20688 | 4937 ft | 173 kts | 180° |
| 2026-04-24 11:55 | -14.85844 | 39.20699 | 4936 ft | 168 kts | 180° |
| 2026-04-24 11:56 | -14.87003 | 39.20712 | 4938 ft | 165 kts | 180° |
| 2026-04-24 11:56 | -14.88144 | 39.20722 | 4936 ft | 163 kts | 180° |
| 2026-04-24 11:56 | -14.89268 | 39.20730 | 4938 ft | 160 kts | 180° |
| 2026-04-24 11:56 | -14.90379 | 39.20740 | 4937 ft | 159 kts | 180° |
| 2026-04-24 11:57 | -14.91483 | 39.20749 | 4936 ft | 159 kts | 180° |
| 2026-04-24 11:57 | -14.92571 | 39.20759 | 4938 ft | 157 kts | 180° |
| 2026-04-24 11:57 | -14.93659 | 39.20770 | 4941 ft | 156 kts | 180° |
| 2026-04-24 11:57 | -14.94744 | 39.20778 | 4938 ft | 156 kts | 180° |
| 2026-04-24 11:58 | -14.95833 | 39.20788 | 4938 ft | 157 kts | 180° |
| 2026-04-24 11:58 | -14.96927 | 39.20797 | 4936 ft | 157 kts | 180° |
| 2026-04-24 11:58 | -14.98019 | 39.20807 | 4941 ft | 157 kts | 180° |
| 2026-04-24 11:58 | -14.99115 | 39.20816 | 4940 ft | 157 kts | 180° |
| 2026-04-24 11:59 | -15.00207 | 39.20826 | 4939 ft | 157 kts | 180° |
| 2026-04-24 11:59 | -15.01294 | 39.20837 | 4939 ft | 156 kts | 180° |
| 2026-04-24 11:59 | -15.02362 | 39.20852 | 4942 ft | 155 kts | 180° |
| 2026-04-24 11:59 | -15.03445 | 39.20858 | 4939 ft | 156 kts | 180° |
| 2026-04-24 12:00 | -15.04529 | 39.20865 | 4939 ft | 156 kts | 180° |
| 2026-04-24 12:00 | -15.05613 | 39.20874 | 4939 ft | 156 kts | 180° |
| 2026-04-24 12:00 | -15.06697 | 39.20884 | 4940 ft | 156 kts | 180° |
| 2026-04-24 12:00 | -15.07783 | 39.20893 | 4940 ft | 156 kts | 180° |
| 2026-04-24 12:01 | -15.08869 | 39.20903 | 4941 ft | 156 kts | 180° |
| 2026-04-24 12:01 | -15.09957 | 39.20913 | 4941 ft | 156 kts | 180° |
| 2026-04-24 12:01 | -15.11030 | 39.20922 | 4941 ft | 156 kts | 180° |
| 2026-04-24 12:01 | -15.12118 | 39.20932 | 4941 ft | 157 kts | 180° |
| 2026-04-24 12:02 | -15.13207 | 39.20941 | 4938 ft | 156 kts | 180° |
| 2026-04-24 12:02 | -15.14292 | 39.20952 | 4941 ft | 156 kts | 180° |
| 2026-04-24 12:02 | -15.15378 | 39.20965 | 4941 ft | 156 kts | 180° |
| 2026-04-24 12:02 | -15.16464 | 39.20974 | 4942 ft | 156 kts | 181° |
| 2026-04-24 12:03 | -15.17552 | 39.20981 | 4941 ft | 156 kts | 180° |
| 2026-04-24 12:03 | -15.18638 | 39.20991 | 4941 ft | 156 kts | 180° |
| 2026-04-24 12:03 | -15.19722 | 39.21001 | 4940 ft | 156 kts | 180° |
| 2026-04-24 12:03 | -15.20807 | 39.21009 | 4940 ft | 156 kts | 180° |
| 2026-04-24 12:04 | -15.21876 | 39.21018 | 4939 ft | 156 kts | 180° |
| 2026-04-24 12:04 | -15.22959 | 39.21029 | 4939 ft | 156 kts | 180° |
| 2026-04-24 12:04 | -15.24039 | 39.21070 | 4936 ft | 156 kts | 171° |
| 2026-04-24 12:04 | -15.25004 | 39.21570 | 4879 ft | 155 kts | 140° |
| 2026-04-24 12:05 | -15.25641 | 39.22449 | 4548 ft | 156 kts | 113° |
| 2026-04-24 12:05 | -15.25809 | 39.23550 | 4219 ft | 156 kts | 85° |
| 2026-04-24 12:05 | -15.25475 | 39.24598 | 3966 ft | 151 kts | 57° |
| 2026-04-24 12:05 | -15.24810 | 39.25352 | 3950 ft | 134 kts | 43° |
| 2026-04-24 12:06 | -15.24179 | 39.26026 | 3949 ft | 129 kts | 46° |
| 2026-04-24 12:06 | -15.23568 | 39.26679 | 3954 ft | 128 kts | 45° |
| 2026-04-24 12:06 | -15.22952 | 39.27340 | 3950 ft | 127 kts | 46° |
| 2026-04-24 12:06 | -15.22343 | 39.27990 | 3954 ft | 125 kts | 45° |
| 2026-04-24 12:07 | -15.21737 | 39.28637 | 3957 ft | 125 kts | 45° |
| 2026-04-24 12:07 | -15.21128 | 39.29288 | 3955 ft | 126 kts | 46° |
| 2026-04-24 12:07 | -15.20519 | 39.29943 | 3962 ft | 125 kts | 45° |
| 2026-04-24 12:07 | -15.19907 | 39.30590 | 3955 ft | 125 kts | 45° |
| 2026-04-24 12:08 | -15.19306 | 39.31238 | 3959 ft | 125 kts | 46° |
| 2026-04-24 12:08 | -15.18703 | 39.31880 | 3959 ft | 127 kts | 45° |
| 2026-04-24 12:08 | -15.18083 | 39.32537 | 3959 ft | 128 kts | 45° |
| 2026-04-24 12:08 | -15.17471 | 39.33200 | 3960 ft | 127 kts | 46° |
| 2026-04-24 12:09 | -15.16852 | 39.33854 | 3961 ft | 127 kts | 45° |
| 2026-04-24 12:09 | -15.16239 | 39.34514 | 3961 ft | 127 kts | 45° |
| 2026-04-24 12:09 | -15.15621 | 39.35172 | 3961 ft | 128 kts | 45° |
| 2026-04-24 12:09 | -15.15006 | 39.35833 | 3958 ft | 127 kts | 45° |
| 2026-04-24 12:10 | -15.14387 | 39.36486 | 3959 ft | 127 kts | 45° |
| 2026-04-24 12:10 | -15.13777 | 39.37140 | 3957 ft | 125 kts | 46° |
| 2026-04-24 12:10 | -15.13175 | 39.37789 | 3959 ft | 125 kts | 45° |
| 2026-04-24 12:11 | -15.11962 | 39.39083 | 3961 ft | 128 kts | 45° |
| 2026-04-24 12:11 | -15.11324 | 39.39760 | 3966 ft | 134 kts | 46° |
| 2026-04-24 12:11 | -15.10665 | 39.40463 | 3972 ft | 138 kts | 45° |
| 2026-04-24 12:11 | -15.09987 | 39.41180 | 3970 ft | 141 kts | 45° |
| 2026-04-24 12:12 | -15.09302 | 39.41916 | 3971 ft | 143 kts | 45° |
| 2026-04-24 12:12 | -15.08604 | 39.42657 | 3972 ft | 145 kts | 45° |
| 2026-04-24 12:12 | -15.07901 | 39.43409 | 3970 ft | 146 kts | 45° |
| 2026-04-24 12:12 | -15.07194 | 39.44164 | 3972 ft | 146 kts | 45° |
| 2026-04-24 12:13 | -15.06529 | 39.44881 | 3962 ft | 134 kts | 46° |
| 2026-04-24 12:13 | -15.05915 | 39.45532 | 3950 ft | 119 kts | 45° |
| 2026-04-24 12:13 | -15.05363 | 39.46121 | 3951 ft | 112 kts | 45° |
| 2026-04-24 12:13 | -15.04791 | 39.46652 | 3948 ft | 110 kts | 27° |
| 2026-04-24 12:14 | -15.04064 | 39.46711 | 3950 ft | 106 kts | 344° |
| 2026-04-24 12:14 | -15.03451 | 39.46337 | 3956 ft | 102 kts | 310° |
| 2026-04-24 12:14 | -15.02961 | 39.45809 | 3954 ft | 103 kts | 319° |
| 2026-04-24 12:14 | -15.02414 | 39.45301 | 3958 ft | 107 kts | 315° |
| 2026-04-24 12:15 | -15.01875 | 39.44771 | 3961 ft | 107 kts | 316° |
| 2026-04-24 12:15 | -15.01339 | 39.44246 | 3962 ft | 108 kts | 316° |
| 2026-04-24 12:15 | -15.00795 | 39.43708 | 3964 ft | 108 kts | 315° |
| 2026-04-24 12:15 | -15.00248 | 39.43170 | 3962 ft | 109 kts | 316° |
| 2026-04-24 12:16 | -14.99707 | 39.42629 | 3964 ft | 108 kts | 315° |
| 2026-04-24 12:16 | -14.99166 | 39.42095 | 3965 ft | 108 kts | 315° |
| 2026-04-24 12:16 | -14.98768 | 39.41455 | 3959 ft | 107 kts | 278° |
| 2026-04-24 12:16 | -14.98908 | 39.40640 | 3972 ft | 130 kts | 243° |
| 2026-04-24 12:17 | -14.99568 | 39.39893 | 4009 ft | 146 kts | 223° |
| 2026-04-24 12:17 | -15.00291 | 39.39141 | 4031 ft | 150 kts | 227° |
| 2026-04-24 12:17 | -15.01022 | 39.38347 | 3869 ft | 155 kts | 227° |
| 2026-04-24 12:17 | -15.01762 | 39.37548 | 3660 ft | 152 kts | 226° |
| 2026-04-24 12:18 | -15.02472 | 39.36795 | 3469 ft | 136 kts | 226° |
| 2026-04-24 12:18 | -15.03082 | 39.36146 | 3293 ft | 119 kts | 226° |
| 2026-04-24 12:18 | -15.03649 | 39.35550 | 3135 ft | 113 kts | 226° |
| 2026-04-24 12:18 | -15.04188 | 39.34974 | 2986 ft | 110 kts | 226° |
| 2026-04-24 12:19 | -15.04717 | 39.34416 | 2841 ft | 108 kts | 227° |
| 2026-04-24 12:19 | -15.05240 | 39.33857 | 2701 ft | 109 kts | 226° |
| 2026-04-24 12:19 | -15.05761 | 39.33299 | 2558 ft | 107 kts | 226° |
| 2026-04-24 12:19 | -15.06274 | 39.32755 | 2419 ft | 108 kts | 227° |
| 2026-04-24 12:20 | -15.06795 | 39.32195 | 2276 ft | 108 kts | 226° |
| 2026-04-24 12:20 | -15.07320 | 39.31632 | 2131 ft | 109 kts | 227° |
| 2026-04-24 12:20 | -15.07849 | 39.31070 | 1986 ft | 109 kts | 226° |
| 2026-04-24 12:20 | -15.08374 | 39.30511 | 1844 ft | 109 kts | 227° |
| 2026-04-24 12:21 | -15.08901 | 39.29945 | 1697 ft | 109 kts | 226° |
| 2026-04-24 12:21 | -15.09431 | 39.29380 | 1552 ft | 110 kts | 227° |
| 2026-04-24 12:21 | -15.09961 | 39.28813 | 1407 ft | 108 kts | 226° |
| 2026-04-24 12:21 | -15.10413 | 39.28328 | 1401 ft | 80 kts | 224° |
| 2026-04-24 12:22 | -15.10745 | 39.27965 | 1400 ft | 60 kts | 225° |
| 2026-04-24 12:22 | -15.10997 | 39.27703 | 1408 ft | 45 kts | 231° |
| 2026-04-24 12:22 | -15.11193 | 39.27511 | 1405 ft | 34 kts | 202° |
| 2026-04-24 12:22 | -15.11362 | 39.27515 | 1409 ft | 17 kts | 139° |
| 2026-04-24 12:23 | -15.11365 | 39.27519 | 1408 ft | 0 kts | 126° |